Time;durP1;ratioP1;P1;durP2;ratioP2;P2;SDS_P1;SDS_P2;PMS_P1;PMS_P2;Temp;Humidity;BMP_temperature;BMP_pressure;BME280_temperature;BME280_humidity;BME280_pressure;Samples;Min_cycle;Max_cycle;Signal;HPM_P1;HPM_P2
2023/12/04 00:01:16;;;;;;;40.78;17.27;;;-3.60;99.90;;;;;;5027212;28;20034;-76
2023/12/04 00:03:42;;;;;;;22.15;10.00;;;-3.60;99.90;;;;;;5027398;28;20120;-76
2023/12/04 00:06:07;;;;;;;14.68;6.68;;;-3.60;99.90;;;;;;5027506;28;20132;-76
2023/12/04 00:08:33;;;;;;;15.35;6.32;;;-3.60;99.90;;;;;;5011159;28;20049;-76
2023/12/04 00:10:59;;;;;;;13.95;6.47;;;-3.70;99.90;;;;;;5011485;28;20030;-76
2023/12/04 00:13:24;;;;;;;11.40;4.65;;;-3.60;99.90;;;;;;5012302;28;20022;-76
2023/12/04 00:15:50;;;;;;;14.10;6.55;;;-3.50;99.90;;;;;;5012419;28;20037;-76
2023/12/04 00:18:16;;;;;;;12.25;6.18;;;-3.40;99.90;;;;;;5026933;28;20026;-76
2023/12/04 00:20:41;;;;;;;18.17;7.38;;;-3.40;99.90;;;;;;5012387;28;20030;-75
2023/12/04 00:23:07;;;;;;;12.30;5.97;;;-3.40;99.90;;;;;;5012206;28;20026;-76
2023/12/04 00:25:32;;;;;;;9.43;4.55;;;-3.40;99.90;;;;;;5011153;28;20041;-76
2023/12/04 00:27:58;;;;;;;10.18;4.57;;;-3.50;99.90;;;;;;5012334;28;20765;-77
2023/12/04 00:30:24;;;;;;;10.07;4.53;;;-3.50;99.90;;;;;;5011704;28;20029;-74
2023/12/04 00:32:49;;;;;;;10.05;4.85;;;-3.40;99.90;;;;;;5011988;28;20411;-75
2023/12/04 00:35:15;;;;;;;9.13;4.70;;;-3.40;99.90;;;;;;5012079;28;20513;-76
2023/12/04 00:37:40;;;;;;;10.25;5.00;;;-3.60;99.90;;;;;;5012369;28;20050;-76
2023/12/04 00:40:07;;;;;;;26.02;10.43;;;-3.70;99.90;;;;;;5011234;28;20129;-76
2023/12/04 00:42:33;;;;;;;24.63;11.38;;;-3.70;99.90;;;;;;5012795;28;20083;-76
2023/12/04 00:44:59;;;;;;;24.42;10.43;;;-3.80;99.90;;;;;;5027925;28;20026;-76
2023/12/04 00:47:24;;;;;;;28.50;12.40;;;-3.70;99.90;;;;;;5012650;28;20398;-76
2023/12/04 00:49:50;;;;;;;55.08;22.25;;;-3.70;99.90;;;;;;5027957;28;20124;-76
2023/12/04 00:52:15;;;;;;;49.53;20.73;;;-3.80;99.90;;;;;;5027740;28;20022;-75
2023/12/04 00:54:41;;;;;;;32.40;13.85;;;-3.80;99.90;;;;;;5027944;28;20506;-76
2023/12/04 00:57:08;;;;;;;26.67;10.60;;;-3.80;99.90;;;;;;5027524;28;20037;-76
2023/12/04 00:59:33;;;;;;;15.40;7.45;;;-3.60;99.90;;;;;;5027053;28;20022;-76
2023/12/04 01:01:59;;;;;;;11.43;6.10;;;-3.40;99.90;;;;;;5011690;28;20036;-75
2023/12/04 01:04:25;;;;;;;10.73;5.40;;;-3.30;99.90;;;;;;5013177;28;20033;-76
2023/12/04 01:06:52;;;;;;;12.70;6.72;;;-3.40;99.90;;;;;;5011233;28;20034;-75
2023/12/04 01:09:17;;;;;;;13.35;6.50;;;-3.70;99.90;;;;;;5027361;28;20109;-76
2023/12/04 01:11:43;;;;;;;14.85;7.65;;;-3.70;99.90;;;;;;5025765;28;20121;-76
2023/12/04 01:14:09;;;;;;;15.07;7.28;;;-3.70;99.90;;;;;;5025901;28;20065;-76
2023/12/04 01:16:34;;;;;;;14.55;5.75;;;-3.60;99.90;;;;;;5010781;28;20390;-76
2023/12/04 01:19:00;;;;;;;9.98;5.65;;;-3.70;99.90;;;;;;5025754;28;20033;-75
2023/12/04 01:21:26;;;;;;;11.18;5.10;;;-3.90;99.90;;;;;;5025748;28;20029;-75
2023/12/04 01:23:51;;;;;;;11.98;5.70;;;-3.80;99.90;;;;;;5010742;28;20263;-76
2023/12/04 01:26:17;;;;;;;12.60;5.50;;;-3.80;99.90;;;;;;5010796;28;20033;-76
2023/12/04 01:28:42;;;;;;;18.10;8.43;;;-3.70;99.90;;;;;;5009344;28;20442;-75
2023/12/04 01:31:09;;;;;;;18.33;8.57;;;-3.80;99.90;;;;;;5009358;28;20030;-76
2023/12/04 01:33:34;;;;;;;13.98;7.30;;;-3.80;99.90;;;;;;5010770;28;20092;-75
2023/12/04 01:36:01;;;;;;;25.92;9.43;;;-3.90;99.90;;;;;;5011913;28;20479;-75
2023/12/04 01:38:27;;;;;;;25.17;10.65;;;-4.00;99.90;;;;;;5011522;28;20026;-76
2023/12/04 01:40:52;;;;;;;23.08;9.75;;;-4.10;99.90;;;;;;5026652;28;20030;-76
2023/12/04 01:43:18;;;;;;;16.90;8.13;;;-4.00;99.90;;;;;;5026351;28;20034;-75
2023/12/04 01:45:44;;;;;;;16.08;7.60;;;-4.00;99.90;;;;;;5026836;28;20064;-76
2023/12/04 01:48:13;;;;;;;14.93;7.93;;;-4.00;99.90;;;;;;5012208;28;20026;-76
2023/12/04 01:50:39;;;;;;;15.07;6.55;;;-3.90;99.90;;;;;;5011415;28;20117;-76
2023/12/04 01:53:05;;;;;;;13.60;6.60;;;-3.90;99.90;;;;;;5025709;28;20037;-76
2023/12/04 01:55:33;;;;;;;14.15;6.13;;;-3.90;99.90;;;;;;5011036;28;20034;-75
2023/12/04 01:58:01;;;;;;;12.52;5.85;;;-3.90;99.90;;;;;;5010717;28;20080;-76
2023/12/04 02:00:27;;;;;;;9.90;4.88;;;-4.00;99.90;;;;;;5010712;28;20026;-76
2023/12/04 02:02:53;;;;;;;11.45;5.50;;;-4.00;99.90;;;;;;5009973;28;20384;-76
2023/12/04 02:05:20;;;;;;;15.50;6.65;;;-4.10;99.90;;;;;;5010111;28;20057;-76
2023/12/04 02:07:47;;;;;;;11.98;5.93;;;-4.10;99.90;;;;;;5011482;28;20139;-75
2023/12/04 02:10:13;;;;;;;17.90;7.15;;;-4.20;99.90;;;;;;5011191;28;20062;-75
2023/12/04 02:12:38;;;;;;;16.45;7.03;;;-4.10;99.90;;;;;;5011237;28;20491;-76
2023/12/04 02:15:05;;;;;;;17.00;7.15;;;-4.00;99.90;;;;;;5025742;28;20038;-76
2023/12/04 02:17:33;;;;;;;14.32;6.25;;;-4.00;99.90;;;;;;5025747;28;20026;-76
2023/12/04 02:19:59;;;;;;;16.65;7.05;;;-4.20;99.90;;;;;;5010717;28;20034;-76
2023/12/04 02:22:24;;;;;;;13.63;6.20;;;-4.20;99.90;;;;;;5011546;28;20393;-76
2023/12/04 02:24:50;;;;;;;14.75;6.28;;;-4.30;99.90;;;;;;5013361;28;20033;-76
2023/12/04 02:27:55;;;;;;;12.02;5.82;;;-4.30;99.90;;;;;;5030369;28;20053;-76
2023/12/04 02:30:24;;;;;;;11.20;4.93;;;-4.30;99.90;;;;;;5030255;28;20029;-75
2023/12/04 02:32:51;;;;;;;10.43;4.32;;;-4.20;99.90;;;;;;5015519;28;20049;-76
2023/12/04 02:35:22;;;;;;;9.90;4.25;;;-4.20;99.90;;;;;;5030044;28;20502;-76
2023/12/04 02:37:48;;;;;;;24.25;8.50;;;-4.00;99.90;;;;;;5015721;28;20077;-76
2023/12/04 02:40:15;;;;;;;16.40;6.20;;;-4.10;99.90;;;;;;5014774;28;20068;-76
2023/12/04 02:42:41;;;;;;;30.98;12.57;;;-4.20;99.90;;;;;;5031114;28;20034;-76
2023/12/04 02:45:07;;;;;;;10.82;4.88;;;-4.20;99.90;;;;;;5029892;28;20026;-75
2023/12/04 02:47:32;;;;;;;18.58;7.32;;;-4.00;99.90;;;;;;5020210;28;20038;-77
2023/12/04 02:49:58;;;;;;;15.55;6.68;;;-4.00;99.90;;;;;;5036200;28;20489;-75
2023/12/04 02:52:24;;;;;;;11.25;5.00;;;-4.10;99.90;;;;;;5016952;28;20113;-76
2023/12/04 02:54:49;;;;;;;10.10;5.00;;;-4.30;99.90;;;;;;5020658;28;20851;-76
2023/12/04 02:57:15;;;;;;;17.08;7.93;;;-4.30;99.90;;;;;;5031217;28;20148;-76
2023/12/04 02:59:41;;;;;;;19.92;9.68;;;-4.40;99.90;;;;;;5029597;28;20038;-75
2023/12/04 03:02:06;;;;;;;18.15;8.65;;;-4.40;99.90;;;;;;5013030;28;20025;-75
2023/12/04 03:04:32;;;;;;;20.38;10.38;;;-4.30;99.90;;;;;;5029376;28;20536;-75
2023/12/04 03:06:58;;;;;;;19.08;8.93;;;-4.20;99.90;;;;;;5028944;28;20030;-76
2023/12/04 03:09:23;;;;;;;16.58;8.43;;;-4.20;99.90;;;;;;5013080;28;20452;-76
2023/12/04 03:11:49;;;;;;;17.02;8.38;;;-4.20;99.90;;;;;;5012952;28;20568;-75
2023/12/04 03:14:15;;;;;;;11.00;5.95;;;-4.00;99.90;;;;;;5029276;28;20030;-76
2023/12/04 03:16:40;;;;;;;15.02;5.55;;;-4.00;99.90;;;;;;5015553;28;20076;-76
2023/12/04 03:19:06;;;;;;;11.32;4.65;;;-3.90;99.90;;;;;;5027944;28;20037;-76
2023/12/04 03:21:32;;;;;;;11.93;4.43;;;-4.00;99.90;;;;;;5013559;28;20030;-76
2023/12/04 03:23:57;;;;;;;11.05;5.03;;;-4.00;99.90;;;;;;5011828;28;20514;-77
2023/12/04 03:26:23;;;;;;;13.65;4.78;;;-4.00;99.90;;;;;;5012731;28;20364;-75
2023/12/04 03:28:49;;;;;;;10.65;5.07;;;-4.10;99.90;;;;;;5028358;28;20032;-76
2023/12/04 03:31:14;;;;;;;9.65;3.85;;;-4.20;99.90;;;;;;5028125;28;20030;-76
2023/12/04 03:33:40;;;;;;;12.40;6.10;;;-4.20;99.90;;;;;;5012900;28;20049;-75
2023/12/04 03:36:06;;;;;;;17.83;8.35;;;-4.20;99.90;;;;;;5012345;28;20029;-77
2023/12/04 03:38:32;;;;;;;16.58;7.22;;;-4.20;99.90;;;;;;5013102;28;20021;-75
2023/12/04 03:40:57;;;;;;;13.70;5.72;;;-4.20;99.90;;;;;;5012867;28;20030;-76
2023/12/04 03:43:23;;;;;;;13.07;5.45;;;-4.30;99.90;;;;;;5012812;28;20053;-76
2023/12/04 03:45:48;;;;;;;15.27;6.28;;;-4.30;99.90;;;;;;5027902;28;20025;-76
2023/12/04 03:48:14;;;;;;;12.85;5.78;;;-4.40;99.90;;;;;;5011487;28;20033;-75
2023/12/04 03:50:40;;;;;;;18.85;7.72;;;-4.50;99.90;;;;;;5027677;28;20022;-76
2023/12/04 03:53:05;;;;;;;18.10;7.45;;;-4.50;99.90;;;;;;5012655;28;20021;-77
2023/12/04 03:55:31;;;;;;;15.70;7.22;;;-4.50;99.90;;;;;;5011202;28;20033;-76
2023/12/04 03:57:57;;;;;;;14.30;7.05;;;-4.40;99.90;;;;;;5027372;28;20399;-76
2023/12/04 04:00:23;;;;;;;17.52;7.78;;;-4.40;99.90;;;;;;5012384;28;20029;-76
2023/12/04 04:02:48;;;;;;;19.15;8.75;;;-4.40;99.90;;;;;;5027437;28;20030;-75
2023/12/04 04:05:14;;;;;;;39.40;15.93;;;-4.30;99.90;;;;;;5011253;28;20026;-76
2023/12/04 04:07:40;;;;;;;32.72;14.98;;;-4.30;99.90;;;;;;5012901;28;20399;-75
2023/12/04 04:10:06;;;;;;;42.95;16.25;;;-4.40;99.90;;;;;;5027692;28;20030;-75
2023/12/04 04:12:33;;;;;;;40.25;17.10;;;-4.40;99.90;;;;;;5027665;28;20049;-75
2023/12/04 04:14:58;;;;;;;42.30;18.15;;;-4.40;99.90;;;;;;5027719;28;20255;-75
2023/12/04 04:17:27;;;;;;;66.18;31.80;;;-4.40;99.90;;;;;;5027774;28;20550;-75
2023/12/04 04:19:53;;;;;;;39.75;20.50;;;-4.40;99.90;;;;;;5012568;28;20029;-74
2023/12/04 04:22:22;;;;;;;49.85;21.95;;;-4.50;99.90;;;;;;5027814;28;20033;-76
2023/12/04 04:24:48;;;;;;;42.00;19.52;;;-4.60;99.90;;;;;;5012970;28;20119;-76
2023/12/04 04:27:14;;;;;;;31.05;13.70;;;-4.50;99.90;;;;;;5027850;28;20034;-75
2023/12/04 04:29:40;;;;;;;25.30;11.57;;;-4.50;99.90;;;;;;5012788;28;20038;-76
2023/12/04 04:32:06;;;;;;;12.30;5.85;;;-4.50;99.90;;;;;;5027956;28;20063;-75
2023/12/04 04:34:32;;;;;;;12.35;5.40;;;-4.50;99.90;;;;;;5012549;28;20056;-76
2023/12/04 04:36:57;;;;;;;14.32;5.93;;;-4.40;99.90;;;;;;5027678;28;20030;-75
2023/12/04 04:39:23;;;;;;;13.95;5.50;;;-4.60;99.90;;;;;;5027803;28;20025;-75
2023/12/04 04:41:49;;;;;;;13.98;6.45;;;-4.70;99.90;;;;;;5028152;28;20644;-76
2023/12/04 04:44:14;;;;;;;15.95;7.13;;;-4.70;99.90;;;;;;5012921;28;20030;-76
2023/12/04 04:46:40;;;;;;;19.23;8.48;;;-4.60;99.90;;;;;;5011289;28;20128;-76
2023/12/04 04:49:06;;;;;;;17.88;8.48;;;-4.60;99.90;;;;;;5012323;28;20018;-76
2023/12/04 04:51:33;;;;;;;23.17;9.50;;;-4.60;99.90;;;;;;5027655;28;20061;-75
2023/12/04 04:53:59;;;;;;;22.67;10.43;;;-4.70;99.90;;;;;;5011437;28;20026;-76
2023/12/04 04:56:25;;;;;;;23.70;10.30;;;-4.70;99.90;;;;;;5028305;28;20045;-77
2023/12/04 04:58:50;;;;;;;27.90;11.25;;;-4.80;99.90;;;;;;5028557;28;20022;-76
2023/12/04 05:01:16;;;;;;;32.58;12.18;;;-4.80;99.90;;;;;;5028073;28;20085;-76
2023/12/04 05:03:41;;;;;;;26.33;11.68;;;-4.80;99.90;;;;;;5012129;28;20391;-75
2023/12/04 05:06:07;;;;;;;58.75;20.23;;;-4.70;99.90;;;;;;5027475;28;20061;-76
2023/12/04 05:08:34;;;;;;;50.70;19.70;;;-4.60;99.90;;;;;;5027473;28;20033;-76
2023/12/04 05:10:59;;;;;;;46.58;20.38;;;-4.60;99.90;;;;;;5012103;28;20140;-76
2023/12/04 05:13:25;;;;;;;39.90;16.95;;;-4.70;99.90;;;;;;5012523;28;20538;-77
2023/12/04 05:15:50;;;;;;;39.95;16.77;;;-4.70;99.90;;;;;;5010827;28;20133;-76
2023/12/04 05:18:16;;;;;;;39.65;16.15;;;-4.70;99.90;;;;;;5027270;28;20033;-75
2023/12/04 05:20:41;;;;;;;34.55;15.90;;;-4.70;99.90;;;;;;5027342;28;20041;-75
2023/12/04 05:23:07;;;;;;;33.42;13.32;;;-4.70;99.90;;;;;;5011878;28;20083;-76
2023/12/04 05:25:33;;;;;;;34.22;13.40;;;-4.80;99.90;;;;;;5026152;28;20040;-76
2023/12/04 05:27:58;;;;;;;28.88;12.00;;;-4.80;99.90;;;;;;5026568;28;20507;-75
2023/12/04 05:30:24;;;;;;;25.75;11.60;;;-4.80;99.90;;;;;;5011306;28;20042;-76
2023/12/04 05:32:49;;;;;;;25.88;11.13;;;-4.80;99.90;;;;;;5025904;28;20056;-75
2023/12/04 05:35:16;;;;;;;19.85;9.38;;;-4.80;99.90;;;;;;5010274;28;20108;-76
2023/12/04 05:37:42;;;;;;;20.70;9.27;;;-4.80;99.90;;;;;;5027040;28;20025;-75
2023/12/04 05:40:08;;;;;;;16.27;8.32;;;-4.70;99.90;;;;;;5011746;28;20080;-76
2023/12/04 05:42:33;;;;;;;15.52;7.55;;;-4.70;99.90;;;;;;5011772;28;20112;-76
2023/12/04 05:45:00;;;;;;;14.00;6.35;;;-4.80;99.90;;;;;;5026625;28;20125;-75
2023/12/04 05:47:26;;;;;;;14.27;6.07;;;-4.70;99.90;;;;;;5011672;28;20026;-75
2023/12/04 05:49:52;;;;;;;17.75;10.70;;;-4.60;99.90;;;;;;5011717;28;20030;-75
2023/12/04 05:52:17;;;;;;;17.15;9.60;;;-4.50;99.90;;;;;;5027190;28;20592;-76
2023/12/04 05:54:43;;;;;;;25.23;12.30;;;-4.30;99.90;;;;;;5018530;28;20037;-75
2023/12/04 05:57:08;;;;;;;24.80;11.70;;;-4.40;99.90;;;;;;5030918;28;20030;-75
2023/12/04 05:59:34;;;;;;;20.20;10.95;;;-4.30;99.90;;;;;;5013999;28;20502;-76
2023/12/04 06:02:00;;;;;;;22.73;11.38;;;-4.40;99.90;;;;;;5017646;28;20030;-76
2023/12/04 06:04:26;;;;;;;18.50;10.57;;;-4.40;99.90;;;;;;5015388;28;20025;-76
2023/12/04 06:06:52;;;;;;;24.33;11.30;;;-4.50;99.90;;;;;;5025883;28;20461;-75
2023/12/04 06:09:17;;;;;;;35.72;18.23;;;-4.60;99.90;;;;;;5010843;28;20710;-75
2023/12/04 06:11:43;;;;;;;33.67;19.08;;;-4.50;99.90;;;;;;5010617;28;20722;-76
2023/12/04 06:14:09;;;;;;;45.95;23.88;;;-4.50;99.90;;;;;;5025780;28;20817;-75
2023/12/04 06:16:34;;;;;;;37.88;18.25;;;-4.40;99.90;;;;;;5025707;28;20045;-75
2023/12/04 06:19:00;;;;;;;36.10;19.42;;;-4.40;99.90;;;;;;5025780;28;20365;-75
2023/12/04 06:21:25;;;;;;;43.20;20.60;;;-4.50;99.90;;;;;;5010821;28;20030;-76
2023/12/04 06:23:51;;;;;;;35.72;17.98;;;-4.60;99.90;;;;;;5011003;28;20439;-76
2023/12/04 06:26:17;;;;;;;46.08;20.17;;;-4.70;99.90;;;;;;5025534;28;20034;-76
2023/12/04 06:28:44;;;;;;;59.55;26.45;;;-4.60;99.90;;;;;;5025406;28;20060;-75
2023/12/04 06:31:10;;;;;;;66.20;28.02;;;-4.70;99.90;;;;;;5025378;28;20033;-75
2023/12/04 06:33:36;;;;;;;66.90;27.60;;;-4.60;99.90;;;;;;5025150;28;20530;-75
2023/12/04 06:36:02;;;;;;;43.00;20.40;;;-4.50;99.90;;;;;;5025056;28;20030;-76
2023/12/04 06:38:35;;;;;;;45.80;21.63;;;-4.50;99.90;;;;;;5025351;28;20033;-75
2023/12/04 06:41:01;;;;;;;44.05;20.33;;;-4.50;99.90;;;;;;5010186;28;20033;-76
2023/12/04 06:43:27;;;;;;;51.28;21.80;;;-4.60;99.90;;;;;;5025152;28;20022;-76
2023/12/04 06:45:56;;;;;;;53.97;24.27;;;-4.60;99.90;;;;;;5025780;28;20499;-76
2023/12/04 06:48:22;;;;;;;41.55;21.85;;;-4.30;99.90;;;;;;5025859;28;20037;-76
2023/12/04 06:50:48;;;;;;;66.47;28.92;;;-4.10;99.90;;;;;;5010304;28;20033;-76
2023/12/04 06:53:14;;;;;;;26.73;13.32;;;-4.00;99.90;;;;;;5025528;28;20022;-75
2023/12/04 06:55:39;;;;;;;45.15;19.75;;;-4.00;99.90;;;;;;5025300;28;20077;-75
2023/12/04 06:58:05;;;;;;;43.95;20.30;;;-4.10;99.90;;;;;;5025486;28;20026;-75
2023/12/04 07:00:31;;;;;;;39.15;18.92;;;-4.20;99.90;;;;;;5009838;28;20026;-76
2023/12/04 07:02:56;;;;;;;38.50;19.38;;;-4.20;99.90;;;;;;5010362;28;20088;-75
2023/12/04 07:05:22;;;;;;;34.63;17.38;;;-4.10;99.90;;;;;;5025254;28;20498;-76
2023/12/04 07:07:48;;;;;;;20.45;9.82;;;-3.80;99.90;;;;;;5025669;28;20026;-76
2023/12/04 07:10:14;;;;;;;20.38;10.90;;;-3.30;99.90;;;;;;5011680;28;20030;-76
2023/12/04 07:12:42;;;;;;;21.55;11.32;;;-2.90;99.90;;;;;;5029508;28;20029;-75
2023/12/04 07:15:08;;;;;;;17.85;9.55;;;-2.50;99.90;;;;;;5014177;28;20431;-76
2023/12/04 07:17:35;;;;;;;20.75;9.90;;;-2.20;99.90;;;;;;5029248;28;20029;-76
2023/12/04 07:20:01;;;;;;;27.30;14.18;;;-1.80;99.90;;;;;;5013541;28;20491;-76
2023/12/04 07:22:26;;;;;;;29.27;14.43;;;-1.80;99.90;;;;;;5029598;28;20041;-76
2023/12/04 07:24:52;;;;;;;;;;;-1.70;99.90;;;;;;5015189;28;20034;-76
2023/12/04 07:27:18;;;;;;;34.03;15.90;;;-1.60;99.90;;;;;;5014797;28;19916;-76
2023/12/04 07:29:43;;;;;;;31.38;15.85;;;-1.40;99.90;;;;;;5013618;28;20049;-75
2023/12/04 07:32:09;;;;;;;28.30;14.07;;;-1.20;99.90;;;;;;5013230;28;20034;-76
2023/12/04 07:34:34;;;;;;;25.17;12.23;;;-1.10;99.90;;;;;;5027660;28;20514;-75
2023/12/04 07:37:00;;;;;;;24.05;13.05;;;-1.10;99.90;;;;;;5028264;28;20408;-75
2023/12/04 07:39:26;;;;;;;20.98;10.77;;;-1.00;99.90;;;;;;5028917;28;20176;-76
2023/12/04 07:41:52;;;;;;;22.45;12.82;;;-0.80;99.90;;;;;;5013187;28;20132;-76
2023/12/04 07:44:18;;;;;;;22.63;11.48;;;-0.70;99.90;;;;;;5013478;28;20029;-76
2023/12/04 07:46:43;;;;;;;28.27;13.75;;;-0.50;99.90;;;;;;5013266;28;20034;-75
2023/12/04 07:49:09;;;;;;;32.80;13.93;;;-0.40;99.90;;;;;;5012153;28;20406;-76
2023/12/04 07:51:35;;;;;;;;;;;-0.10;99.90;;;;;;5013739;28;20038;-76
2023/12/04 07:54:01;;;;;;;21.45;11.07;;;0.50;99.90;;;;;;5013460;28;19956;-78
2023/12/04 07:56:26;;;;;;;20.27;10.63;;;1.10;99.90;;;;;;5028285;28;20045;-75
2023/12/04 07:58:52;;;;;;;;;;;1.70;99.90;;;;;;5029208;28;20032;-76
2023/12/04 08:01:18;;;;;;;22.50;12.10;;;2.20;99.90;;;;;;5013867;28;20016;-75
2023/12/04 08:03:43;;;;;;;;;;;2.50;99.90;;;;;;5015120;28;20028;-75
2023/12/04 08:06:09;;;;;;;46.95;21.33;;;2.70;99.90;;;;;;5012887;28;19909;-75
2023/12/04 08:08:34;;;;;;;;;;;2.90;99.90;;;;;;5029915;28;20483;-76
2023/12/04 08:11:00;;;;;;;36.20;17.08;;;3.20;99.90;;;;;;5013147;28;20363;-76
2023/12/04 08:13:25;;;;;;;;;;;3.20;99.90;;;;;;5015280;28;20024;-75
2023/12/04 08:15:51;;;;;;;30.13;14.73;;;3.00;99.90;;;;;;5013148;28;19924;-76
2023/12/04 08:18:16;;;;;;;;;;;2.70;99.90;;;;;;5029938;28;20372;-75
2023/12/04 08:20:42;;;;;;;18.95;10.38;;;2.30;99.90;;;;;;5012720;28;20289;-76
2023/12/04 08:23:08;;;;;;;;;;;1.80;99.90;;;;;;5030505;28;20483;-75
2023/12/04 08:25:34;;;;;;;19.48;9.38;;;1.40;99.90;;;;;;5012640;28;19909;-76
2023/12/04 08:28:00;;;;;;;18.58;9.77;;;1.10;99.90;;;;;;5012646;28;20034;-76
2023/12/04 08:30:27;;;;;;;;;;;0.80;99.90;;;;;;5029995;28;20049;-76
2023/12/04 08:32:53;;;;;;;22.10;10.98;;;0.60;99.90;;;;;;5029499;28;20445;-76
2023/12/04 08:35:18;;;;;;;;;;;0.40;99.90;;;;;;5014129;28;20049;-75
2023/12/04 08:37:44;;;;;;;24.60;13.35;;;0.30;99.90;;;;;;5012860;28;19988;-76
2023/12/04 08:40:10;;;;;;;;;;;0.20;99.90;;;;;;5014360;28;20029;-75
2023/12/04 08:42:35;;;;;;;28.05;12.80;;;0.20;99.90;;;;;;5014588;28;20397;-76
2023/12/04 08:45:01;;;;;;;;;;;0.20;99.90;;;;;;5014549;28;20029;-76
2023/12/04 08:47:26;;;;;;;20.05;10.90;;;0.10;99.90;;;;;;5014041;28;19906;-76
2023/12/04 08:49:52;;;;;;;;;;;0.10;99.90;;;;;;5029930;28;20030;-76
2023/12/04 08:52:18;;;;;;;19.85;10.57;;;0.10;99.90;;;;;;5029704;28;19913;-76
2023/12/04 08:54:44;;;;;;;;;;;0.00;99.90;;;;;;5029753;28;20057;-76
2023/12/04 08:57:10;;;;;;;20.63;10.68;;;0.10;99.90;;;;;;5030239;28;19910;-76
2023/12/04 08:59:35;;;;;;;;;;;0.00;99.90;;;;;;5035780;28;20022;-77
2023/12/04 09:02:04;;;;;;;15.07;7.93;;;0.00;99.90;;;;;;5015163;28;19906;-76
2023/12/04 09:04:32;;;;;;;15.32;7.68;;;0.00;99.90;;;;;;5032085;28;20056;-76
2023/12/04 09:06:58;;;;;;;14.45;6.82;;;0.00;99.90;;;;;;5018476;28;20072;-76
2023/12/04 09:09:24;;;;;;;;;;;0.00;99.90;;;;;;5015090;28;20029;-77
2023/12/04 09:11:49;;;;;;;20.50;10.07;;;0.00;99.90;;;;;;5011976;28;19964;-77
2023/12/04 09:14:15;;;;;;;;;;;0.00;99.90;;;;;;5028073;28;20041;-76
2023/12/04 09:16:41;;;;;;;14.48;6.93;;;0.00;99.90;;;;;;5012403;28;19913;-76
2023/12/04 09:19:07;;;;;;;14.35;7.68;;;-0.10;99.90;;;;;;5012128;28;20053;-76
2023/12/04 09:21:33;;;;;;;13.45;7.15;;;-0.10;99.90;;;;;;5010835;28;20038;-76
2023/12/04 09:23:59;;;;;;;12.93;7.72;;;-0.10;99.90;;;;;;5011108;28;20033;-76
2023/12/04 09:26:24;;;;;;;;;;;-0.10;99.90;;;;;;5011522;28;20029;-76
2023/12/04 09:28:50;;;;;;;13.38;7.30;;;-0.10;99.90;;;;;;5027726;28;19910;-76
2023/12/04 09:31:16;;;;;;;;;;;-0.20;99.90;;;;;;5013468;28;20057;-76
2023/12/04 09:33:42;;;;;;;13.27;8.15;;;-0.10;99.90;;;;;;5010269;28;19971;-75
2023/12/04 09:36:08;;;;;;;13.18;8.07;;;-0.10;99.90;;;;;;5011069;28;20052;-76
2023/12/04 09:38:34;;;;;;;15.18;8.43;;;-0.10;99.90;;;;;;5010012;28;20026;-76
2023/12/04 09:41:02;;;;;;;15.25;8.88;;;-0.10;99.90;;;;;;5010893;28;20032;-76
2023/12/04 09:43:32;;;;;;;32.25;16.80;;;-0.20;99.90;;;;;;5010098;28;20422;-77
2023/12/04 09:45:58;;;;;;;24.88;14.48;;;-0.20;99.90;;;;;;5011294;28;20040;-76
2023/12/04 09:48:29;;;;;;;19.88;12.40;;;-0.10;99.90;;;;;;5026391;28;20026;-76
2023/12/04 09:50:55;;;;;;;17.25;9.50;;;-0.10;99.90;;;;;;5011404;28;20057;-76
2023/12/04 09:53:22;;;;;;;19.13;11.18;;;0.00;99.90;;;;;;5026040;28;20025;-76
2023/12/04 09:55:49;;;;;;;17.35;9.95;;;0.00;99.90;;;;;;5026019;28;20042;-76
2023/12/04 09:58:15;;;;;;;25.92;14.77;;;0.00;99.90;;;;;;5011464;28;20394;-75
2023/12/04 10:00:42;;;;;;;19.38;12.35;;;0.10;99.90;;;;;;5026354;28;20057;-76
2023/12/04 10:03:08;;;;;;;26.00;14.10;;;0.10;99.90;;;;;;5011260;28;20026;-76
2023/12/04 10:05:34;;;;;;;;;;;0.20;99.90;;;;;;5011903;28;20030;-75
2023/12/04 10:08:00;;;;;;;14.77;8.00;;;0.30;99.90;;;;;;5011436;28;20056;-76
2023/12/04 10:10:26;;;;;;;;;;;0.40;99.90;;;;;;5011494;28;20014;-76
2023/12/04 10:12:51;;;;;;;12.80;7.82;;;0.40;99.90;;;;;;5009749;28;19906;-76
2023/12/04 10:15:17;;;;;;;;;;;0.40;99.90;;;;;;5011206;28;20072;-76
2023/12/04 10:17:46;;;;;;;13.55;8.25;;;0.40;99.90;;;;;;5011545;28;19945;-76
2023/12/04 10:20:17;;;;;;;18.20;10.75;;;0.30;99.90;;;;;;5026580;28;20526;-75
2023/12/04 10:22:57;;;;;;;16.73;9.70;;;0.40;99.90;;;;;;5011333;28;20533;-76
2023/12/04 10:25:28;;;;;;;13.82;8.15;;;0.50;99.90;;;;;;5009982;28;20041;-76
2023/12/04 10:27:54;;;;;;;12.55;7.57;;;0.30;99.90;;;;;;5011111;28;20538;-76
2023/12/04 10:30:25;;;;;;;10.75;6.70;;;0.40;99.90;;;;;;5011386;28;20057;-75
2023/12/04 10:32:55;;;;;;;12.02;7.03;;;0.40;99.90;;;;;;5026251;28;20052;-75
2023/12/04 10:35:22;;;;;;;11.85;7.25;;;0.40;99.90;;;;;;5010989;28;20042;-76
2023/12/04 10:37:48;;;;;;;11.80;7.32;;;0.40;99.90;;;;;;5010068;28;20470;-76
2023/12/04 10:40:26;;;;;;;11.48;7.32;;;0.50;99.90;;;;;;5025917;28;20116;-76
2023/12/04 10:43:09;;;;;;;9.20;5.85;;;0.40;99.90;;;;;;5023327;28;20042;-76
2023/12/04 10:45:36;;;;;;;13.52;7.22;;;0.40;99.90;;;;;;5014245;28;20025;-76
2023/12/04 10:48:04;;;;;;;10.93;6.82;;;0.40;99.90;;;;;;5030250;28;20394;-76
2023/12/04 10:50:37;;;;;;;12.68;7.10;;;0.50;99.90;;;;;;5015398;28;20040;-76
2023/12/04 10:53:04;;;;;;;8.98;5.97;;;0.50;99.90;;;;;;5014808;28;20026;-76
2023/12/04 10:55:30;;;;;;;9.38;5.93;;;0.40;99.90;;;;;;5015585;28;20048;-76
2023/12/04 10:57:56;;;;;;;11.38;7.25;;;0.50;99.90;;;;;;5015124;28;20109;-75
2023/12/04 11:00:24;;;;;;;11.38;6.70;;;0.50;99.90;;;;;;5030293;28;20034;-75
2023/12/04 11:02:51;;;;;;;10.93;6.75;;;0.50;99.90;;;;;;5013809;28;20032;-76
2023/12/04 11:05:21;;;;;;;10.82;6.75;;;0.50;99.90;;;;;;5013621;28;20124;-76
2023/12/04 11:08:02;;;;;;;12.07;7.45;;;0.50;99.90;;;;;;5030372;28;20132;-76
2023/12/04 11:10:31;;;;;;;13.30;7.90;;;0.60;99.90;;;;;;5030145;28;20516;-76
2023/12/04 11:13:18;;;;;;;13.23;8.15;;;0.60;99.90;;;;;;5030044;28;20057;-76
2023/12/04 11:15:50;;;;;;;13.68;6.75;;;0.60;99.90;;;;;;5013475;28;20046;-76
2023/12/04 11:18:19;;;;;;;13.90;6.82;;;0.60;99.90;;;;;;5014548;28;20050;-76
2023/12/04 11:20:51;;;;;;;11.32;7.07;;;0.70;99.90;;;;;;5030407;28;20113;-76
2023/12/04 11:23:17;;;;;;;10.75;6.68;;;0.70;99.90;;;;;;5015217;28;20026;-77
2023/12/04 11:25:43;;;;;;;;;;;0.60;99.90;;;;;;5014522;28;20136;-75
2023/12/04 11:28:10;;;;;;;9.40;5.68;;;0.70;99.90;;;;;;5013679;28;19912;-76
2023/12/04 11:30:36;;;;;;;11.32;5.95;;;0.70;99.90;;;;;;5030268;28;20088;-76
2023/12/04 11:33:02;;;;;;;12.82;7.75;;;0.70;99.90;;;;;;5030440;28;20526;-75
2023/12/04 11:35:28;;;;;;;13.35;8.18;;;0.70;99.90;;;;;;5030484;28;20069;-77
2023/12/04 11:37:54;;;;;;;;;;;0.80;99.90;;;;;;5018046;28;20025;-77
2023/12/04 11:40:19;;;;;;;12.90;8.57;;;0.70;99.90;;;;;;5015464;28;19956;-76
2023/12/04 11:42:45;;;;;;;16.15;9.52;;;0.70;99.90;;;;;;5014785;28;20506;-76
2023/12/04 11:45:18;;;;;;;;;;;0.70;99.90;;;;;;5030690;28;20124;-76
2023/12/04 11:47:58;;;;;;;13.68;7.72;;;0.80;99.90;;;;;;5014741;28;19939;-76
2023/12/04 11:50:25;;;;;;;13.25;8.80;;;0.80;99.90;;;;;;5013140;28;20034;-76
2023/12/04 11:52:51;;;;;;;17.60;9.75;;;0.80;99.90;;;;;;5029511;28;20022;-77
2023/12/04 11:55:24;;;;;;;15.52;9.93;;;0.90;99.90;;;;;;5014049;28;20057;-76
2023/12/04 11:57:51;;;;;;;16.33;8.98;;;0.80;99.90;;;;;;5013957;28;20041;-76
2023/12/04 12:00:18;;;;;;;17.13;10.38;;;0.80;99.90;;;;;;5017007;28;20021;-76
2023/12/04 12:03:01;;;;;;;18.30;10.82;;;0.80;99.90;;;;;;5015243;28;20033;-76
2023/12/04 12:05:27;;;;;;;17.98;10.80;;;0.70;99.90;;;;;;5015453;28;20030;-76
2023/12/04 12:07:52;;;;;;;;;;;0.70;99.90;;;;;;5017503;28;20037;-76
2023/12/04 12:10:18;;;;;;;19.23;12.10;;;0.60;99.90;;;;;;5014869;28;19905;-76
2023/12/04 12:12:44;;;;;;;;;;;0.60;99.90;;;;;;5029262;28;20406;-76
2023/12/04 12:15:10;;;;;;;18.80;10.80;;;0.50;99.90;;;;;;5013308;28;19963;-76
2023/12/04 12:17:41;;;;;;;23.15;14.10;;;0.50;99.90;;;;;;5029065;28;20752;-76
2023/12/04 12:20:11;;;;;;;16.85;10.75;;;0.60;99.90;;;;;;5013738;28;20034;-76
2023/12/04 12:22:37;;;;;;;14.75;9.15;;;0.60;99.90;;;;;;5013116;28;20032;-76
2023/12/04 12:25:08;;;;;;;16.88;9.60;;;0.60;99.90;;;;;;5012410;28;20490;-76
2023/12/04 12:27:34;;;;;;;14.55;8.77;;;0.70;99.90;;;;;;5012359;28;20535;-76
2023/12/04 12:30:00;;;;;;;22.35;11.98;;;0.70;99.90;;;;;;5028085;28;20047;-76
2023/12/04 12:32:26;;;;;;;;;;;0.80;99.90;;;;;;5012579;28;20388;-76
2023/12/04 12:34:52;;;;;;;20.77;13.02;;;0.80;99.90;;;;;;5012566;28;19917;-76
2023/12/04 12:37:18;;;;;;;16.42;9.40;;;0.90;99.90;;;;;;5012498;28;20560;-76
2023/12/04 12:39:44;;;;;;;;;;;1.00;99.90;;;;;;5011924;28;20525;-76
2023/12/04 12:42:10;;;;;;;13.30;8.80;;;1.00;99.90;;;;;;5013156;28;19906;-76